sensor_id;sensor_type;location;lat;lon;timestamp;P1;durP1;ratioP1;P2;durP2;ratioP2
59434;SDS011;45241;49.768;8.636;2023-02-25T00:00:28;6.60;;;3.20;;
59434;SDS011;45241;49.768;8.636;2023-02-25T00:02:54;7.68;;;3.45;;
59434;SDS011;45241;49.768;8.636;2023-02-25T00:05:20;5.47;;;2.92;;
59434;SDS011;45241;49.768;8.636;2023-02-25T00:07:46;5.53;;;3.25;;
59434;SDS011;45241;49.768;8.636;2023-02-25T00:10:12;7.32;;;3.10;;
59434;SDS011;45241;49.768;8.636;2023-02-25T00:12:38;6.75;;;3.08;;
59434;SDS011;45241;49.768;8.636;2023-02-25T00:15:05;6.57;;;3.50;;
59434;SDS011;45241;49.768;8.636;2023-02-25T00:17:31;6.65;;;3.38;;
59434;SDS011;45241;49.768;8.636;2023-02-25T00:19:57;5.70;;;3.15;;
59434;SDS011;45241;49.768;8.636;2023-02-25T00:22:23;6.93;;;3.50;;
59434;SDS011;45241;49.768;8.636;2023-02-25T00:24:53;10.35;;;3.67;;
59434;SDS011;45241;49.768;8.636;2023-02-25T00:27:19;8.20;;;3.60;;
59434;SDS011;45241;49.768;8.636;2023-02-25T00:29:46;5.63;;;3.63;;
59434;SDS011;45241;49.768;8.636;2023-02-25T00:32:11;5.18;;;3.30;;
59434;SDS011;45241;49.768;8.636;2023-02-25T00:34:37;6.40;;;3.72;;
59434;SDS011;45241;49.768;8.636;2023-02-25T00:37:02;7.93;;;3.10;;
59434;SDS011;45241;49.768;8.636;2023-02-25T00:39:28;6.63;;;3.38;;
59434;SDS011;45241;49.768;8.636;2023-02-25T00:42:05;9.27;;;3.95;;
59434;SDS011;45241;49.768;8.636;2023-02-25T00:44:32;8.07;;;3.85;;
59434;SDS011;45241;49.768;8.636;2023-02-25T00:46:58;6.55;;;4.13;;
59434;SDS011;45241;49.768;8.636;2023-02-25T00:49:23;8.30;;;4.20;;
59434;SDS011;45241;49.768;8.636;2023-02-25T00:51:50;7.28;;;4.30;;
59434;SDS011;45241;49.768;8.636;2023-02-25T00:54:16;8.57;;;4.60;;
59434;SDS011;45241;49.768;8.636;2023-02-25T00:56:41;7.78;;;4.68;;
59434;SDS011;45241;49.768;8.636;2023-02-25T00:59:06;8.45;;;4.15;;
59434;SDS011;45241;49.768;8.636;2023-02-25T01:01:32;6.18;;;3.95;;
59434;SDS011;45241;49.768;8.636;2023-02-25T01:03:58;8.80;;;4.20;;
59434;SDS011;45241;49.768;8.636;2023-02-25T01:06:24;9.85;;;4.40;;
59434;SDS011;45241;49.768;8.636;2023-02-25T01:08:50;8.57;;;4.40;;
59434;SDS011;45241;49.768;8.636;2023-02-25T01:11:18;8.57;;;4.20;;
59434;SDS011;45241;49.768;8.636;2023-02-25T01:13:46;7.03;;;3.78;;
59434;SDS011;45241;49.768;8.636;2023-02-25T01:16:13;7.93;;;4.03;;
59434;SDS011;45241;49.768;8.636;2023-02-25T01:18:40;9.63;;;4.13;;
59434;SDS011;45241;49.768;8.636;2023-02-25T01:21:06;6.72;;;4.32;;
59434;SDS011;45241;49.768;8.636;2023-02-25T01:23:32;9.50;;;3.97;;
59434;SDS011;45241;49.768;8.636;2023-02-25T01:25:58;8.90;;;4.03;;
59434;SDS011;45241;49.768;8.636;2023-02-25T01:28:23;6.82;;;4.20;;
59434;SDS011;45241;49.768;8.636;2023-02-25T01:30:48;11.85;;;4.13;;
59434;SDS011;45241;49.768;8.636;2023-02-25T01:33:13;8.85;;;4.60;;
59434;SDS011;45241;49.768;8.636;2023-02-25T01:35:39;8.57;;;4.22;;
59434;SDS011;45241;49.768;8.636;2023-02-25T01:38:04;8.25;;;4.03;;
59434;SDS011;45241;49.768;8.636;2023-02-25T01:40:29;8.10;;;4.07;;
59434;SDS011;45241;49.768;8.636;2023-02-25T01:42:55;10.05;;;3.80;;
59434;SDS011;45241;49.768;8.636;2023-02-25T01:45:22;8.00;;;4.10;;
59434;SDS011;45241;49.768;8.636;2023-02-25T01:47:53;8.95;;;3.90;;
59434;SDS011;45241;49.768;8.636;2023-02-25T01:50:24;10.40;;;4.05;;
59434;SDS011;45241;49.768;8.636;2023-02-25T01:52:55;8.63;;;3.60;;
59434;SDS011;45241;49.768;8.636;2023-02-25T01:55:25;9.77;;;3.78;;
59434;SDS011;45241;49.768;8.636;2023-02-25T01:57:50;14.05;;;4.22;;
59434;SDS011;45241;49.768;8.636;2023-02-25T02:00:16;10.57;;;4.10;;
59434;SDS011;45241;49.768;8.636;2023-02-25T02:02:42;8.00;;;3.67;;
59434;SDS011;45241;49.768;8.636;2023-02-25T02:05:09;10.40;;;3.92;;
59434;SDS011;45241;49.768;8.636;2023-02-25T02:07:36;9.23;;;3.80;;
59434;SDS011;45241;49.768;8.636;2023-02-25T02:10:02;11.98;;;3.88;;
59434;SDS011;45241;49.768;8.636;2023-02-25T02:12:30;11.25;;;3.63;;
59434;SDS011;45241;49.768;8.636;2023-02-25T02:14:57;8.25;;;3.72;;
59434;SDS011;45241;49.768;8.636;2023-02-25T02:20:09;13.25;;;3.97;;
59434;SDS011;45241;49.768;8.636;2023-02-25T02:34:03;8.55;;;3.38;;
59434;SDS011;45241;49.768;8.636;2023-02-25T02:36:48;12.40;;;3.38;;
59434;SDS011;45241;49.768;8.636;2023-02-25T02:39:30;8.75;;;3.50;;
59434;SDS011;45241;49.768;8.636;2023-02-25T02:47:53;9.68;;;3.65;;
59434;SDS011;45241;49.768;8.636;2023-02-25T02:50:40;12.98;;;3.50;;
59434;SDS011;45241;49.768;8.636;2023-02-25T02:53:13;11.98;;;4.30;;
59434;SDS011;45241;49.768;8.636;2023-02-25T02:55:45;13.20;;;3.67;;
59434;SDS011;45241;49.768;8.636;2023-02-25T03:01:57;10.38;;;3.50;;
59434;SDS011;45241;49.768;8.636;2023-02-25T03:04:18;10.93;;;3.67;;
59434;SDS011;45241;49.768;8.636;2023-02-25T03:06:51;10.60;;;2.97;;
59434;SDS011;45241;49.768;8.636;2023-02-25T03:09:22;9.40;;;3.40;;
59434;SDS011;45241;49.768;8.636;2023-02-25T03:11:54;10.50;;;3.00;;
59434;SDS011;45241;49.768;8.636;2023-02-25T03:14:20;12.52;;;3.40;;
59434;SDS011;45241;49.768;8.636;2023-02-25T03:16:48;12.32;;;2.95;;
59434;SDS011;45241;49.768;8.636;2023-02-25T03:19:18;10.82;;;2.55;;
59434;SDS011;45241;49.768;8.636;2023-02-25T03:24:42;9.57;;;2.25;;
59434;SDS011;45241;49.768;8.636;2023-02-25T03:27:19;7.43;;;2.20;;
59434;SDS011;45241;49.768;8.636;2023-02-25T03:29:51;12.73;;;2.42;;
59434;SDS011;45241;49.768;8.636;2023-02-25T03:32:19;7.80;;;2.13;;
59434;SDS011;45241;49.768;8.636;2023-02-25T03:34:47;8.07;;;2.10;;
59434;SDS011;45241;49.768;8.636;2023-02-25T03:37:20;10.48;;;2.08;;
59434;SDS011;45241;49.768;8.636;2023-02-25T03:39:49;8.65;;;2.50;;
59434;SDS011;45241;49.768;8.636;2023-02-25T03:42:26;8.43;;;2.03;;
59434;SDS011;45241;49.768;8.636;2023-02-25T03:44:56;5.72;;;2.00;;
59434;SDS011;45241;49.768;8.636;2023-02-25T03:47:26;9.68;;;2.10;;
59434;SDS011;45241;49.768;8.636;2023-02-25T03:49:56;6.70;;;1.90;;
59434;SDS011;45241;49.768;8.636;2023-02-25T03:52:38;8.25;;;2.10;;
59434;SDS011;45241;49.768;8.636;2023-02-25T03:55:04;7.43;;;1.98;;
59434;SDS011;45241;49.768;8.636;2023-02-25T03:57:39;9.25;;;2.22;;
59434;SDS011;45241;49.768;8.636;2023-02-25T04:00:14;7.07;;;2.03;;
59434;SDS011;45241;49.768;8.636;2023-02-25T04:02:47;8.48;;;1.98;;
59434;SDS011;45241;49.768;8.636;2023-02-25T04:05:14;6.38;;;1.67;;
59434;SDS011;45241;49.768;8.636;2023-02-25T04:07:40;6.63;;;2.08;;
59434;SDS011;45241;49.768;8.636;2023-02-25T04:10:06;7.32;;;1.90;;
59434;SDS011;45241;49.768;8.636;2023-02-25T04:12:33;6.43;;;1.88;;
59434;SDS011;45241;49.768;8.636;2023-02-25T04:14:58;11.90;;;2.05;;
59434;SDS011;45241;49.768;8.636;2023-02-25T04:17:23;9.80;;;2.00;;
59434;SDS011;45241;49.768;8.636;2023-02-25T04:19:49;5.03;;;1.88;;
59434;SDS011;45241;49.768;8.636;2023-02-25T04:22:15;8.82;;;2.17;;
59434;SDS011;45241;49.768;8.636;2023-02-25T04:24:40;4.57;;;1.70;;
59434;SDS011;45241;49.768;8.636;2023-02-25T04:27:05;6.50;;;1.95;;
59434;SDS011;45241;49.768;8.636;2023-02-25T04:29:31;7.30;;;1.95;;
59434;SDS011;45241;49.768;8.636;2023-02-25T04:31:56;12.32;;;2.47;;
59434;SDS011;45241;49.768;8.636;2023-02-25T04:34:22;7.80;;;2.20;;
59434;SDS011;45241;49.768;8.636;2023-02-25T04:36:47;8.80;;;2.25;;
59434;SDS011;45241;49.768;8.636;2023-02-25T04:39:13;11.23;;;2.33;;
59434;SDS011;45241;49.768;8.636;2023-02-25T04:41:40;7.72;;;1.95;;
59434;SDS011;45241;49.768;8.636;2023-02-25T04:44:05;9.60;;;2.38;;
59434;SDS011;45241;49.768;8.636;2023-02-25T04:46:32;9.60;;;2.40;;
59434;SDS011;45241;49.768;8.636;2023-02-25T04:48:59;9.88;;;2.70;;
59434;SDS011;45241;49.768;8.636;2023-02-25T04:51:25;11.00;;;2.35;;
59434;SDS011;45241;49.768;8.636;2023-02-25T04:53:50;9.20;;;2.15;;
59434;SDS011;45241;49.768;8.636;2023-02-25T04:56:15;9.55;;;1.95;;
59434;SDS011;45241;49.768;8.636;2023-02-25T04:58:41;11.25;;;1.90;;
59434;SDS011;45241;49.768;8.636;2023-02-25T05:01:07;9.88;;;2.65;;
59434;SDS011;45241;49.768;8.636;2023-02-25T05:03:34;11.75;;;2.72;;
59434;SDS011;45241;49.768;8.636;2023-02-25T05:06:00;8.30;;;2.20;;
59434;SDS011;45241;49.768;8.636;2023-02-25T05:08:25;9.63;;;2.08;;
59434;SDS011;45241;49.768;8.636;2023-02-25T05:10:51;7.50;;;1.73;;
59434;SDS011;45241;49.768;8.636;2023-02-25T05:13:17;10.05;;;1.98;;
59434;SDS011;45241;49.768;8.636;2023-02-25T05:15:43;8.88;;;1.85;;
59434;SDS011;45241;49.768;8.636;2023-02-25T05:18:09;7.60;;;2.13;;
59434;SDS011;45241;49.768;8.636;2023-02-25T05:20:38;13.25;;;2.10;;
59434;SDS011;45241;49.768;8.636;2023-02-25T05:23:05;10.25;;;2.42;;
59434;SDS011;45241;49.768;8.636;2023-02-25T05:25:30;11.48;;;2.38;;
59434;SDS011;45241;49.768;8.636;2023-02-25T05:27:57;8.63;;;1.75;;
59434;SDS011;45241;49.768;8.636;2023-02-25T05:30:23;11.10;;;2.35;;
59434;SDS011;45241;49.768;8.636;2023-02-25T05:32:48;8.30;;;2.05;;
59434;SDS011;45241;49.768;8.636;2023-02-25T05:35:14;6.85;;;1.65;;
59434;SDS011;45241;49.768;8.636;2023-02-25T05:37:39;12.70;;;1.90;;
59434;SDS011;45241;49.768;8.636;2023-02-25T05:40:04;6.35;;;1.98;;
59434;SDS011;45241;49.768;8.636;2023-02-25T05:42:32;11.18;;;1.90;;
59434;SDS011;45241;49.768;8.636;2023-02-25T05:44:57;12.23;;;2.10;;
59434;SDS011;45241;49.768;8.636;2023-02-25T05:47:22;9.00;;;1.63;;
59434;SDS011;45241;49.768;8.636;2023-02-25T05:49:48;9.75;;;1.60;;
59434;SDS011;45241;49.768;8.636;2023-02-25T05:52:13;7.80;;;2.13;;
59434;SDS011;45241;49.768;8.636;2023-02-25T05:54:38;9.07;;;1.92;;
59434;SDS011;45241;49.768;8.636;2023-02-25T05:57:04;11.48;;;2.00;;
59434;SDS011;45241;49.768;8.636;2023-02-25T05:59:30;14.23;;;1.90;;
59434;SDS011;45241;49.768;8.636;2023-02-25T06:01:56;8.32;;;1.90;;
59434;SDS011;45241;49.768;8.636;2023-02-25T06:04:21;9.60;;;2.00;;
59434;SDS011;45241;49.768;8.636;2023-02-25T06:06:47;12.02;;;2.00;;
59434;SDS011;45241;49.768;8.636;2023-02-25T06:09:16;8.07;;;1.98;;
59434;SDS011;45241;49.768;8.636;2023-02-25T06:11:43;12.63;;;2.13;;
59434;SDS011;45241;49.768;8.636;2023-02-25T06:14:09;8.13;;;1.90;;
59434;SDS011;45241;49.768;8.636;2023-02-25T06:16:36;9.38;;;1.90;;
59434;SDS011;45241;49.768;8.636;2023-02-25T06:19:02;6.78;;;1.63;;
59434;SDS011;45241;49.768;8.636;2023-02-25T06:21:30;10.50;;;2.42;;
59434;SDS011;45241;49.768;8.636;2023-02-25T06:23:56;14.07;;;2.78;;
59434;SDS011;45241;49.768;8.636;2023-02-25T06:26:21;9.88;;;2.28;;
59434;SDS011;45241;49.768;8.636;2023-02-25T06:28:47;8.13;;;2.45;;
59434;SDS011;45241;49.768;8.636;2023-02-25T06:31:13;9.32;;;2.05;;
59434;SDS011;45241;49.768;8.636;2023-02-25T06:33:40;7.90;;;2.30;;
59434;SDS011;45241;49.768;8.636;2023-02-25T06:36:05;10.68;;;2.75;;
59434;SDS011;45241;49.768;8.636;2023-02-25T06:38:32;10.82;;;2.42;;
59434;SDS011;45241;49.768;8.636;2023-02-25T06:40:59;5.25;;;1.85;;
59434;SDS011;45241;49.768;8.636;2023-02-25T06:43:24;10.18;;;2.65;;
59434;SDS011;45241;49.768;8.636;2023-02-25T06:45:49;9.23;;;2.40;;
59434;SDS011;45241;49.768;8.636;2023-02-25T06:48:15;9.57;;;2.35;;
59434;SDS011;45241;49.768;8.636;2023-02-25T06:50:40;11.55;;;2.53;;
59434;SDS011;45241;49.768;8.636;2023-02-25T06:53:06;10.90;;;2.30;;
59434;SDS011;45241;49.768;8.636;2023-02-25T06:55:32;12.68;;;2.50;;
59434;SDS011;45241;49.768;8.636;2023-02-25T06:57:58;7.70;;;2.33;;
59434;SDS011;45241;49.768;8.636;2023-02-25T07:00:23;11.48;;;2.13;;
59434;SDS011;45241;49.768;8.636;2023-02-25T07:02:49;7.28;;;1.88;;
59434;SDS011;45241;49.768;8.636;2023-02-25T07:05:14;11.90;;;2.30;;
59434;SDS011;45241;49.768;8.636;2023-02-25T07:07:39;10.57;;;2.20;;
59434;SDS011;45241;49.768;8.636;2023-02-25T07:10:05;8.32;;;2.08;;
59434;SDS011;45241;49.768;8.636;2023-02-25T07:12:31;12.52;;;2.42;;
59434;SDS011;45241;49.768;8.636;2023-02-25T07:14:59;8.20;;;2.42;;
59434;SDS011;45241;49.768;8.636;2023-02-25T07:17:24;12.57;;;2.20;;
59434;SDS011;45241;49.768;8.636;2023-02-25T07:19:50;11.35;;;2.40;;
59434;SDS011;45241;49.768;8.636;2023-02-25T07:22:15;13.65;;;2.63;;
59434;SDS011;45241;49.768;8.636;2023-02-25T07:24:42;8.88;;;2.28;;
59434;SDS011;45241;49.768;8.636;2023-02-25T07:27:07;7.45;;;2.22;;
59434;SDS011;45241;49.768;8.636;2023-02-25T07:29:33;12.52;;;2.85;;
59434;SDS011;45241;49.768;8.636;2023-02-25T07:31:58;11.68;;;2.33;;
59434;SDS011;45241;49.768;8.636;2023-02-25T07:34:24;12.68;;;2.53;;
59434;SDS011;45241;49.768;8.636;2023-02-25T07:36:50;10.05;;;2.50;;
59434;SDS011;45241;49.768;8.636;2023-02-25T07:39:16;11.57;;;2.53;;
59434;SDS011;45241;49.768;8.636;2023-02-25T07:41:41;12.70;;;2.53;;
59434;SDS011;45241;49.768;8.636;2023-02-25T07:44:07;11.65;;;2.38;;
59434;SDS011;45241;49.768;8.636;2023-02-25T07:46:33;11.02;;;2.40;;
59434;SDS011;45241;49.768;8.636;2023-02-25T07:48:58;8.10;;;2.25;;
59434;SDS011;45241;49.768;8.636;2023-02-25T07:51:24;10.85;;;2.33;;
59434;SDS011;45241;49.768;8.636;2023-02-25T07:53:50;9.55;;;2.30;;
59434;SDS011;45241;49.768;8.636;2023-02-25T07:56:18;11.02;;;2.10;;
59434;SDS011;45241;49.768;8.636;2023-02-25T07:58:44;10.20;;;2.35;;
59434;SDS011;45241;49.768;8.636;2023-02-25T08:01:10;10.80;;;2.60;;
59434;SDS011;45241;49.768;8.636;2023-02-25T08:03:42;13.57;;;2.78;;
59434;SDS011;45241;49.768;8.636;2023-02-25T08:06:07;12.95;;;2.70;;
59434;SDS011;45241;49.768;8.636;2023-02-25T08:08:33;8.18;;;2.47;;
59434;SDS011;45241;49.768;8.636;2023-02-25T08:13:27;13.15;;;2.63;;
59434;SDS011;45241;49.768;8.636;2023-02-25T08:15:52;10.75;;;2.47;;
59434;SDS011;45241;49.768;8.636;2023-02-25T08:18:18;9.38;;;2.75;;
59434;SDS011;45241;49.768;8.636;2023-02-25T08:20:46;9.07;;;2.30;;
59434;SDS011;45241;49.768;8.636;2023-02-25T08:23:12;10.18;;;2.97;;
59434;SDS011;45241;49.768;8.636;2023-02-25T08:25:37;9.60;;;3.15;;
59434;SDS011;45241;49.768;8.636;2023-02-25T08:28:03;11.68;;;2.67;;
59434;SDS011;45241;49.768;8.636;2023-02-25T08:30:28;9.13;;;2.60;;
59434;SDS011;45241;49.768;8.636;2023-02-25T08:32:54;10.95;;;2.47;;
59434;SDS011;45241;49.768;8.636;2023-02-25T08:35:21;8.70;;;2.50;;
59434;SDS011;45241;49.768;8.636;2023-02-25T08:37:47;11.63;;;3.30;;
59434;SDS011;45241;49.768;8.636;2023-02-25T08:40:12;9.02;;;2.83;;
59434;SDS011;45241;49.768;8.636;2023-02-25T08:42:40;6.75;;;2.53;;
59434;SDS011;45241;49.768;8.636;2023-02-25T08:45:06;7.30;;;3.05;;
59434;SDS011;45241;49.768;8.636;2023-02-25T08:47:31;10.65;;;3.15;;
59434;SDS011;45241;49.768;8.636;2023-02-25T08:49:57;11.63;;;3.30;;
59434;SDS011;45241;49.768;8.636;2023-02-25T08:52:22;12.48;;;3.30;;
59434;SDS011;45241;49.768;8.636;2023-02-25T08:54:48;11.35;;;2.83;;
59434;SDS011;45241;49.768;8.636;2023-02-25T08:57:14;8.80;;;3.00;;
59434;SDS011;45241;49.768;8.636;2023-02-25T08:59:40;8.68;;;2.97;;
59434;SDS011;45241;49.768;8.636;2023-02-25T09:02:05;7.60;;;2.42;;
59434;SDS011;45241;49.768;8.636;2023-02-25T09:04:39;14.82;;;3.50;;
59434;SDS011;45241;49.768;8.636;2023-02-25T09:07:04;9.80;;;2.95;;
59434;SDS011;45241;49.768;8.636;2023-02-25T09:09:30;13.95;;;3.58;;
59434;SDS011;45241;49.768;8.636;2023-02-25T09:11:57;9.30;;;3.22;;
59434;SDS011;45241;49.768;8.636;2023-02-25T09:14:22;11.02;;;3.22;;
59434;SDS011;45241;49.768;8.636;2023-02-25T09:16:48;13.98;;;3.75;;
59434;SDS011;45241;49.768;8.636;2023-02-25T09:19:13;12.15;;;3.67;;
59434;SDS011;45241;49.768;8.636;2023-02-25T09:21:41;11.23;;;3.28;;
59434;SDS011;45241;49.768;8.636;2023-02-25T09:24:07;11.27;;;3.17;;
59434;SDS011;45241;49.768;8.636;2023-02-25T09:26:33;6.28;;;2.85;;
59434;SDS011;45241;49.768;8.636;2023-02-25T09:29:02;9.38;;;3.08;;
59434;SDS011;45241;49.768;8.636;2023-02-25T09:31:29;8.40;;;3.42;;
59434;SDS011;45241;49.768;8.636;2023-02-25T09:33:54;11.27;;;3.40;;
59434;SDS011;45241;49.768;8.636;2023-02-25T09:36:20;10.20;;;3.63;;
59434;SDS011;45241;49.768;8.636;2023-02-25T09:38:46;11.75;;;3.15;;
59434;SDS011;45241;49.768;8.636;2023-02-25T09:44:08;10.40;;;2.85;;
59434;SDS011;45241;49.768;8.636;2023-02-25T09:49:50;9.38;;;3.50;;
59434;SDS011;45241;49.768;8.636;2023-02-25T09:52:30;10.65;;;3.35;;
59434;SDS011;45241;49.768;8.636;2023-02-25T09:55:05;14.57;;;4.03;;
59434;SDS011;45241;49.768;8.636;2023-02-25T09:57:39;10.52;;;3.83;;
59434;SDS011;45241;49.768;8.636;2023-02-25T10:00:09;9.90;;;3.08;;
59434;SDS011;45241;49.768;8.636;2023-02-25T10:02:57;9.68;;;2.95;;
59434;SDS011;45241;49.768;8.636;2023-02-25T10:08:25;7.38;;;3.00;;
59434;SDS011;45241;49.768;8.636;2023-02-25T10:24:35;9.15;;;3.05;;
59434;SDS011;45241;49.768;8.636;2023-02-25T10:27:40;9.45;;;2.90;;
59434;SDS011;45241;49.768;8.636;2023-02-25T10:30:06;9.82;;;3.20;;
59434;SDS011;45241;49.768;8.636;2023-02-25T10:32:39;9.30;;;3.17;;
59434;SDS011;45241;49.768;8.636;2023-02-25T10:35:27;9.23;;;3.08;;
59434;SDS011;45241;49.768;8.636;2023-02-25T10:37:56;9.82;;;3.08;;
59434;SDS011;45241;49.768;8.636;2023-02-25T10:40:23;7.07;;;2.70;;
59434;SDS011;45241;49.768;8.636;2023-02-25T10:42:51;8.23;;;2.90;;
59434;SDS011;45241;49.768;8.636;2023-02-25T10:45:30;8.60;;;3.10;;
59434;SDS011;45241;49.768;8.636;2023-02-25T10:50:30;5.05;;;1.90;;
59434;SDS011;45241;49.768;8.636;2023-02-25T10:53:00;7.78;;;1.88;;
59434;SDS011;45241;49.768;8.636;2023-02-25T10:55:29;9.15;;;2.60;;
59434;SDS011;45241;49.768;8.636;2023-02-25T10:57:59;4.93;;;2.20;;
59434;SDS011;45241;49.768;8.636;2023-02-25T11:00:32;8.25;;;2.40;;
59434;SDS011;45241;49.768;8.636;2023-02-25T11:03:00;7.65;;;2.30;;
59434;SDS011;45241;49.768;8.636;2023-02-25T11:08:02;7.70;;;2.63;;
59434;SDS011;45241;49.768;8.636;2023-02-25T11:10:31;10.13;;;2.70;;
59434;SDS011;45241;49.768;8.636;2023-02-25T11:12:58;9.32;;;2.55;;
59434;SDS011;45241;49.768;8.636;2023-02-25T11:17:56;11.50;;;3.20;;
59434;SDS011;45241;49.768;8.636;2023-02-25T11:20:27;9.60;;;2.63;;
59434;SDS011;45241;49.768;8.636;2023-02-25T11:22:56;5.57;;;2.17;;
59434;SDS011;45241;49.768;8.636;2023-02-25T11:25:23;9.13;;;2.90;;
59434;SDS011;45241;49.768;8.636;2023-02-25T11:27:59;7.25;;;2.20;;
59434;SDS011;45241;49.768;8.636;2023-02-25T11:30:29;9.25;;;2.58;;
59434;SDS011;45241;49.768;8.636;2023-02-25T11:32:58;8.27;;;2.20;;
59434;SDS011;45241;49.768;8.636;2023-02-25T11:35:28;6.57;;;2.17;;
59434;SDS011;45241;49.768;8.636;2023-02-25T11:37:56;5.30;;;2.17;;
59434;SDS011;45241;49.768;8.636;2023-02-25T11:40:26;7.68;;;2.15;;
59434;SDS011;45241;49.768;8.636;2023-02-25T11:46:23;7.75;;;2.17;;
59434;SDS011;45241;49.768;8.636;2023-02-25T11:48:44;14.95;;;2.35;;
59434;SDS011;45241;49.768;8.636;2023-02-25T12:07:50;6.22;;;2.13;;
59434;SDS011;45241;49.768;8.636;2023-02-25T12:10:38;5.50;;;1.48;;
59434;SDS011;45241;49.768;8.636;2023-02-25T12:16:23;5.63;;;1.80;;
59434;SDS011;45241;49.768;8.636;2023-02-25T12:22:12;7.38;;;1.90;;
59434;SDS011;45241;49.768;8.636;2023-02-25T12:25:01;9.60;;;2.20;;
59434;SDS011;45241;49.768;8.636;2023-02-25T12:33:19;8.07;;;1.77;;
59434;SDS011;45241;49.768;8.636;2023-02-25T12:36:09;8.98;;;2.10;;
59434;SDS011;45241;49.768;8.636;2023-02-25T12:39:09;6.32;;;2.13;;
59434;SDS011;45241;49.768;8.636;2023-02-25T12:44:49;5.43;;;1.10;;
59434;SDS011;45241;49.768;8.636;2023-02-25T12:55:35;7.72;;;2.13;;
59434;SDS011;45241;49.768;8.636;2023-02-25T13:06:31;5.82;;;1.88;;
59434;SDS011;45241;49.768;8.636;2023-02-25T13:26:51;2.20;;;1.20;;
59434;SDS011;45241;49.768;8.636;2023-02-25T13:32:27;3.80;;;1.38;;
59434;SDS011;45241;49.768;8.636;2023-02-25T13:35:18;2.90;;;1.25;;
59434;SDS011;45241;49.768;8.636;2023-02-25T13:38:10;2.70;;;1.38;;
59434;SDS011;45241;49.768;8.636;2023-02-25T13:40:56;5.72;;;1.30;;
59434;SDS011;45241;49.768;8.636;2023-02-25T13:43:37;2.50;;;1.20;;
59434;SDS011;45241;49.768;8.636;2023-02-25T13:52:46;3.85;;;1.33;;
59434;SDS011;45241;49.768;8.636;2023-02-25T14:01:15;2.67;;;1.05;;
59434;SDS011;45241;49.768;8.636;2023-02-25T14:06:11;2.20;;;1.20;;
59434;SDS011;45241;49.768;8.636;2023-02-25T14:08:59;1.83;;;0.98;;
59434;SDS011;45241;49.768;8.636;2023-02-25T14:19:42;2.53;;;0.90;;
59434;SDS011;45241;49.768;8.636;2023-02-25T14:22:25;3.45;;;1.00;;
59434;SDS011;45241;49.768;8.636;2023-02-25T14:27:33;1.63;;;0.73;;
59434;SDS011;45241;49.768;8.636;2023-02-25T14:32:53;0.75;;;0.50;;
59434;SDS011;45241;49.768;8.636;2023-02-25T14:35:40;1.67;;;0.70;;
59434;SDS011;45241;49.768;8.636;2023-02-25T14:38:08;1.73;;;0.60;;
59434;SDS011;45241;49.768;8.636;2023-02-25T14:40:41;1.53;;;0.50;;
59434;SDS011;45241;49.768;8.636;2023-02-25T14:49:04;1.17;;;0.60;;
59434;SDS011;45241;49.768;8.636;2023-02-25T14:52:12;3.63;;;0.77;;
59434;SDS011;45241;49.768;8.636;2023-02-25T14:57:25;3.45;;;0.90;;
59434;SDS011;45241;49.768;8.636;2023-02-25T15:06:23;3.88;;;0.98;;
59434;SDS011;45241;49.768;8.636;2023-02-25T15:12:04;3.00;;;0.68;;
59434;SDS011;45241;49.768;8.636;2023-02-25T15:14:57;1.10;;;0.55;;
59434;SDS011;45241;49.768;8.636;2023-02-25T15:17:32;1.30;;;0.52;;
59434;SDS011;45241;49.768;8.636;2023-02-25T15:20:23;1.40;;;0.80;;
59434;SDS011;45241;49.768;8.636;2023-02-25T15:23:07;3.97;;;0.85;;
59434;SDS011;45241;49.768;8.636;2023-02-25T15:28:01;1.15;;;0.60;;
59434;SDS011;45241;49.768;8.636;2023-02-25T15:30:27;0.82;;;0.50;;
59434;SDS011;45241;49.768;8.636;2023-02-25T15:33:38;0.80;;;0.63;;
59434;SDS011;45241;49.768;8.636;2023-02-25T15:43:50;3.88;;;1.08;;
59434;SDS011;45241;49.768;8.636;2023-02-25T15:48:43;2.72;;;0.70;;
59434;SDS011;45241;49.768;8.636;2023-02-25T15:56:55;1.20;;;0.68;;
59434;SDS011;45241;49.768;8.636;2023-02-25T16:07:33;2.92;;;1.80;;
59434;SDS011;45241;49.768;8.636;2023-02-25T16:10:16;2.88;;;1.42;;
59434;SDS011;45241;49.768;8.636;2023-02-25T16:12:47;1.60;;;1.08;;
59434;SDS011;45241;49.768;8.636;2023-02-25T16:15:34;3.88;;;1.30;;
59434;SDS011;45241;49.768;8.636;2023-02-25T16:18:16;1.92;;;1.15;;
59434;SDS011;45241;49.768;8.636;2023-02-25T16:21:05;4.53;;;1.42;;
59434;SDS011;45241;49.768;8.636;2023-02-25T16:23:37;2.67;;;1.30;;
59434;SDS011;45241;49.768;8.636;2023-02-25T16:29:14;4.53;;;1.50;;
59434;SDS011;45241;49.768;8.636;2023-02-25T16:34:54;4.65;;;1.20;;
59434;SDS011;45241;49.768;8.636;2023-02-25T16:37:44;1.67;;;0.98;;
59434;SDS011;45241;49.768;8.636;2023-02-25T16:40:19;2.25;;;0.90;;
59434;SDS011;45241;49.768;8.636;2023-02-25T16:42:49;2.53;;;0.90;;
59434;SDS011;45241;49.768;8.636;2023-02-25T16:45:23;2.30;;;1.20;;
59434;SDS011;45241;49.768;8.636;2023-02-25T16:47:53;3.35;;;1.33;;
59434;SDS011;45241;49.768;8.636;2023-02-25T16:50:21;2.65;;;1.33;;
59434;SDS011;45241;49.768;8.636;2023-02-25T16:52:49;3.65;;;1.35;;
59434;SDS011;45241;49.768;8.636;2023-02-25T16:55:21;7.95;;;3.40;;
59434;SDS011;45241;49.768;8.636;2023-02-25T17:00:59;7.35;;;3.30;;
59434;SDS011;45241;49.768;8.636;2023-02-25T17:03:28;6.90;;;3.20;;
59434;SDS011;45241;49.768;8.636;2023-02-25T17:06:15;5.13;;;3.00;;
59434;SDS011;45241;49.768;8.636;2023-02-25T17:08:43;6.07;;;2.97;;
59434;SDS011;45241;49.768;8.636;2023-02-25T17:11:09;3.90;;;1.95;;
59434;SDS011;45241;49.768;8.636;2023-02-25T17:13:39;7.45;;;1.90;;
59434;SDS011;45241;49.768;8.636;2023-02-25T17:16:06;4.43;;;1.85;;
59434;SDS011;45241;49.768;8.636;2023-02-25T17:19:00;7.13;;;1.70;;
59434;SDS011;45241;49.768;8.636;2023-02-25T17:21:38;4.57;;;1.45;;
59434;SDS011;45241;49.768;8.636;2023-02-25T17:26:44;3.20;;;1.70;;
59434;SDS011;45241;49.768;8.636;2023-02-25T17:29:13;4.35;;;1.77;;
59434;SDS011;45241;49.768;8.636;2023-02-25T17:31:49;3.03;;;1.60;;
59434;SDS011;45241;49.768;8.636;2023-02-25T17:34:17;4.90;;;1.70;;
59434;SDS011;45241;49.768;8.636;2023-02-25T17:36:49;5.93;;;1.77;;
59434;SDS011;45241;49.768;8.636;2023-02-25T17:39:16;5.22;;;1.95;;
59434;SDS011;45241;49.768;8.636;2023-02-25T17:41:44;4.25;;;1.50;;
59434;SDS011;45241;49.768;8.636;2023-02-25T17:44:10;3.25;;;1.30;;
59434;SDS011;45241;49.768;8.636;2023-02-25T17:46:56;3.90;;;1.40;;
59434;SDS011;45241;49.768;8.636;2023-02-25T17:49:26;4.55;;;1.77;;
59434;SDS011;45241;49.768;8.636;2023-02-25T17:51:55;6.65;;;1.88;;
59434;SDS011;45241;49.768;8.636;2023-02-25T17:54:24;2.92;;;1.50;;
59434;SDS011;45241;49.768;8.636;2023-02-25T17:56:58;5.43;;;1.30;;
59434;SDS011;45241;49.768;8.636;2023-02-25T17:59:35;3.80;;;1.17;;
59434;SDS011;45241;49.768;8.636;2023-02-25T18:02:03;4.57;;;1.30;;
59434;SDS011;45241;49.768;8.636;2023-02-25T18:07:35;5.50;;;1.88;;
59434;SDS011;45241;49.768;8.636;2023-02-25T18:10:02;3.88;;;1.58;;
59434;SDS011;45241;49.768;8.636;2023-02-25T18:12:30;3.90;;;1.63;;
59434;SDS011;45241;49.768;8.636;2023-02-25T18:15:04;4.68;;;1.60;;
59434;SDS011;45241;49.768;8.636;2023-02-25T18:17:39;3.63;;;1.50;;
59434;SDS011;45241;49.768;8.636;2023-02-25T18:20:14;6.03;;;1.67;;
59434;SDS011;45241;49.768;8.636;2023-02-25T18:22:52;3.08;;;1.10;;
59434;SDS011;45241;49.768;8.636;2023-02-25T18:25:33;6.10;;;1.80;;
59434;SDS011;45241;49.768;8.636;2023-02-25T18:28:00;4.35;;;1.90;;
59434;SDS011;45241;49.768;8.636;2023-02-25T18:30:27;5.05;;;1.75;;
59434;SDS011;45241;49.768;8.636;2023-02-25T18:32:54;2.85;;;1.10;;
59434;SDS011;45241;49.768;8.636;2023-02-25T18:35:23;2.35;;;1.10;;
59434;SDS011;45241;49.768;8.636;2023-02-25T18:37:50;4.22;;;1.20;;